Bill's Weather Station Status


Memory

               total        used        free      shared  buff/cache   available
Mem:         3918876      633580      117132        2788     3168164     3023084
Swap:              0           0           0

Uptime

 22:59:21 up 463 days, 10:45,  0 users,  load average: 0.33, 0.30, 0.27


Temperature Database

meteo table size: 880343 rows

Last 50 temperature measurements:
2026-05-09 22:55:05: Inside: 66.2, Outside: 51.1, Pressure: 29.873, Humidity:  52, Illumination:  0.00
2026-05-09 22:50:05: Inside: 66.2, Outside: 51.0, Pressure: 29.871, Humidity:  52, Illumination:  0.00
2026-05-09 22:45:05: Inside: 66.3, Outside: 50.9, Pressure: 29.872, Humidity:  52, Illumination:  0.00
2026-05-09 22:40:05: Inside: 66.2, Outside: 50.9, Pressure: 29.874, Humidity:  52, Illumination:  0.00
2026-05-09 22:35:05: Inside: 66.3, Outside: 51.1, Pressure: 29.875, Humidity:  52, Illumination:  0.00
2026-05-09 22:30:05: Inside: 66.3, Outside: 51.4, Pressure: 29.872, Humidity:  52, Illumination:  0.00
2026-05-09 22:25:05: Inside: 66.3, Outside: 51.5, Pressure: 29.873, Humidity:  51, Illumination:  0.00
2026-05-09 22:20:05: Inside: 66.3, Outside: 51.2, Pressure: 29.872, Humidity:  51, Illumination:  0.00
2026-05-09 22:15:05: Inside: 66.4, Outside: 51.2, Pressure: 29.872, Humidity:  51, Illumination:  0.00
2026-05-09 22:10:05: Inside: 66.4, Outside: 51.0, Pressure: 29.873, Humidity:  51, Illumination:  0.00
2026-05-09 22:05:05: Inside: 66.4, Outside: 51.0, Pressure: 29.876, Humidity:  51, Illumination:  0.00
2026-05-09 22:00:05: Inside: 66.5, Outside: 51.1, Pressure: 29.880, Humidity:  51, Illumination:  0.00
2026-05-09 21:55:05: Inside: 66.5, Outside: 51.1, Pressure: 29.882, Humidity:  51, Illumination:  0.00
2026-05-09 21:50:05: Inside: 66.5, Outside: 51.5, Pressure: 29.881, Humidity:  51, Illumination:  0.00
2026-05-09 21:45:05: Inside: 66.5, Outside: 51.6, Pressure: 29.877, Humidity:  51, Illumination:  0.00
2026-05-09 21:40:05: Inside: 66.5, Outside: 51.5, Pressure: 29.875, Humidity:  51, Illumination:  0.00
2026-05-09 21:35:05: Inside: 66.7, Outside: 51.8, Pressure: 29.874, Humidity:  51, Illumination:  0.00
2026-05-09 21:30:05: Inside: 66.7, Outside: 51.9, Pressure: 29.869, Humidity:  51, Illumination:  0.00
2026-05-09 21:25:05: Inside: 66.7, Outside: 52.2, Pressure: 29.871, Humidity:  51, Illumination:  0.00
2026-05-09 21:20:05: Inside: 66.8, Outside: 52.5, Pressure: 29.872, Humidity:  51, Illumination:  0.00
2026-05-09 21:15:05: Inside: 66.8, Outside: 52.8, Pressure: 29.874, Humidity:  51, Illumination:  0.00
2026-05-09 21:10:05: Inside: 66.8, Outside: 52.8, Pressure: 29.870, Humidity:  51, Illumination:  0.00
2026-05-09 21:05:05: Inside: 66.9, Outside: 53.0, Pressure: 29.870, Humidity:  51, Illumination:  0.00
2026-05-09 21:00:06: Inside: 66.9, Outside: 53.1, Pressure: 29.867, Humidity:  51, Illumination:  0.00
2026-05-09 20:55:06: Inside: 66.9, Outside: 53.4, Pressure: 29.868, Humidity:  51, Illumination:  0.00
2026-05-09 20:50:06: Inside: 66.9, Outside: 53.4, Pressure: 29.871, Humidity:  51, Illumination:  0.00
2026-05-09 20:45:05: Inside: 66.9, Outside: 53.5, Pressure: 29.867, Humidity:  51, Illumination:  0.00
2026-05-09 20:40:05: Inside: 67.0, Outside: 53.6, Pressure: 29.864, Humidity:  51, Illumination:  0.00
2026-05-09 20:35:05: Inside: 67.0, Outside: 53.9, Pressure: 29.864, Humidity:  51, Illumination:  0.00
2026-05-09 20:30:05: Inside: 67.0, Outside: 54.2, Pressure: 29.864, Humidity:  51, Illumination:  0.00
2026-05-09 20:25:05: Inside: 67.0, Outside: 54.4, Pressure: 29.866, Humidity:  51, Illumination:  0.00
2026-05-09 20:20:06: Inside: 67.1, Outside: 54.6, Pressure: 29.864, Humidity:  51, Illumination:  0.00
2026-05-09 20:15:06: Inside: 67.2, Outside: 54.6, Pressure: 29.863, Humidity:  51, Illumination:  0.00
2026-05-09 20:10:06: Inside: 67.2, Outside: 54.8, Pressure: 29.859, Humidity:  51, Illumination:  1.00
2026-05-09 20:05:05: Inside: 67.3, Outside: 55.2, Pressure: 29.860, Humidity:  51, Illumination:  2.00
2026-05-09 20:00:05: Inside: 67.3, Outside: 55.5, Pressure: 29.855, Humidity:  50, Illumination:  3.00
2026-05-09 19:55:05: Inside: 67.3, Outside: 55.7, Pressure: 29.854, Humidity:  50, Illumination:  4.00
2026-05-09 19:50:05: Inside: 67.4, Outside: 56.2, Pressure: 29.853, Humidity:  50, Illumination:  7.00
2026-05-09 19:45:05: Inside: 67.4, Outside: 56.8, Pressure: 29.851, Humidity:  50, Illumination:  9.00
2026-05-09 19:40:06: Inside: 67.5, Outside: 57.4, Pressure: 29.850, Humidity:  50, Illumination: 13.00
2026-05-09 19:35:06: Inside: 67.4, Outside: 58.1, Pressure: 29.848, Humidity:  50, Illumination: 17.00
2026-05-09 19:30:05: Inside: 67.5, Outside: 58.3, Pressure: 29.849, Humidity:  50, Illumination: 18.00
2026-05-09 19:25:06: Inside: 67.5, Outside: 58.3, Pressure: 29.858, Humidity:  50, Illumination: 22.00
2026-05-09 19:20:06: Inside: 67.5, Outside: 58.0, Pressure: 29.854, Humidity:  50, Illumination: 23.00
2026-05-09 19:15:06: Inside: 67.5, Outside: 57.8, Pressure: 29.854, Humidity:  50, Illumination: 25.00
2026-05-09 19:10:05: Inside: 67.5, Outside: 57.6, Pressure: 29.854, Humidity:  50, Illumination: 22.00
2026-05-09 19:05:05: Inside: 67.5, Outside: 57.8, Pressure: 29.853, Humidity:  50, Illumination: 28.00
2026-05-09 19:00:05: Inside: 67.7, Outside: 57.6, Pressure: 29.852, Humidity:  49, Illumination: 34.00
2026-05-09 18:55:05: Inside: 67.7, Outside: 57.9, Pressure: 29.850, Humidity:  49, Illumination: 39.00
2026-05-09 18:50:05: Inside: 67.7, Outside: 58.3, Pressure: 29.848, Humidity:  49, Illumination: 57.00

Gas Readings Database

gas table size: 254408 rows

Last 50 gas reading changes:
2026-05-09 21:33:15: Reading: 101948
2026-05-09 21:31:15: Reading: 101946,   ΔT:   2 min,   ΔR:  2 cf
2026-05-09 21:30:44: Reading: 101944,   ΔT:   0 min,   ΔR:  2 cf
2026-05-09 21:21:14: Reading: 101942,   ΔT:   9 min,   ΔR:  2 cf
2026-05-09 19:11:29: Reading: 101940,   ΔT: 129 min,   ΔR:  2 cf
2026-05-09 19:08:30: Reading: 101936,   ΔT:   2 min,   ΔR:  4 cf
2026-05-09 18:14:00: Reading: 101934,   ΔT:  54 min,   ΔR:  2 cf
2026-05-09 18:13:15: Reading: 101932,   ΔT:   0 min,   ΔR:  2 cf
2026-05-09 18:10:44: Reading: 101928,   ΔT:   2 min,   ΔR:  4 cf
2026-05-09 17:23:15: Reading: 101926,   ΔT:  47 min,   ΔR:  2 cf
2026-05-09 17:20:45: Reading: 101922,   ΔT:   2 min,   ΔR:  4 cf
2026-05-09 17:19:45: Reading: 101920,   ΔT:   1 min,   ΔR:  2 cf
2026-05-09 16:33:16: Reading: 101918,   ΔT:  46 min,   ΔR:  2 cf
2026-05-09 16:00:01: Reading: 101916,   ΔT:  33 min,   ΔR:  2 cf
2026-05-09 15:57:45: Reading: 101914,   ΔT:   2 min,   ΔR:  2 cf
2026-05-09 15:55:46: Reading: 101912,   ΔT:   1 min,   ΔR:  2 cf
2026-05-09 15:01:30: Reading: 101910,   ΔT:  54 min,   ΔR:  2 cf
2026-05-09 14:51:00: Reading: 101908,   ΔT:  10 min,   ΔR:  2 cf
2026-05-09 14:50:00: Reading: 101906,   ΔT:   1 min,   ΔR:  2 cf
2026-05-09 14:49:00: Reading: 101904,   ΔT:   1 min,   ΔR:  2 cf
2026-05-09 14:05:15: Reading: 101902,   ΔT:  43 min,   ΔR:  2 cf
2026-05-09 14:03:45: Reading: 101900,   ΔT:   1 min,   ΔR:  2 cf
2026-05-09 13:13:15: Reading: 101898,   ΔT:  50 min,   ΔR:  2 cf
2026-05-09 12:48:46: Reading: 101896,   ΔT:  24 min,   ΔR:  2 cf
2026-05-09 12:48:16: Reading: 101894,   ΔT:   0 min,   ΔR:  2 cf
2026-05-09 11:29:00: Reading: 101892,   ΔT:  79 min,   ΔR:  2 cf
2026-05-09 10:14:01: Reading: 101888,   ΔT:  74 min,   ΔR:  4 cf
2026-05-09 08:55:01: Reading: 101884,   ΔT:  79 min,   ΔR:  4 cf
2026-05-09 07:36:16: Reading: 101880,   ΔT:  78 min,   ΔR:  4 cf
2026-05-09 07:32:16: Reading: 101878,   ΔT:   4 min,   ΔR:  2 cf
2026-05-09 06:59:15: Reading: 101876,   ΔT:  33 min,   ΔR:  2 cf
2026-05-09 06:18:31: Reading: 101874,   ΔT:  40 min,   ΔR:  2 cf
2026-05-09 06:16:30: Reading: 101872,   ΔT:   2 min,   ΔR:  2 cf
2026-05-09 05:01:30: Reading: 101870,   ΔT:  75 min,   ΔR:  2 cf
2026-05-09 04:57:30: Reading: 101868,   ΔT:   4 min,   ΔR:  2 cf
2026-05-09 03:38:16: Reading: 101866,   ΔT:  79 min,   ΔR:  2 cf
2026-05-09 03:36:00: Reading: 101864,   ΔT:   2 min,   ΔR:  2 cf
2026-05-09 02:10:46: Reading: 101862,   ΔT:  85 min,   ΔR:  2 cf
2026-05-09 02:08:31: Reading: 101860,   ΔT:   2 min,   ΔR:  2 cf
2026-05-09 02:00:16: Reading: 101858,   ΔT:   8 min,   ΔR:  2 cf
2026-05-09 00:55:46: Reading: 101856,   ΔT:  64 min,   ΔR:  2 cf
2026-05-09 00:53:16: Reading: 101854,   ΔT:   2 min,   ΔR:  2 cf
2026-05-08 23:36:30: Reading: 101852,   ΔT:  76 min,   ΔR:  2 cf
2026-05-08 23:32:31: Reading: 101850,   ΔT:   3 min,   ΔR:  2 cf
2026-05-08 22:05:01: Reading: 101848,   ΔT:  87 min,   ΔR:  2 cf
2026-05-08 22:02:45: Reading: 101846,   ΔT:   2 min,   ΔR:  2 cf
2026-05-08 22:00:46: Reading: 101844,   ΔT:   1 min,   ΔR:  2 cf
2026-05-08 20:29:02: Reading: 101842,   ΔT:  91 min,   ΔR:  2 cf
2026-05-08 20:25:01: Reading: 101838,   ΔT:   4 min,   ΔR:  4 cf
2026-05-08 18:49:02: Reading: 101836,   ΔT:  95 min,   ΔR:  2 cf